sensor_id;sensor_type;location;lat;lon;timestamp;pressure;altitude;pressure_sealevel;temperature;humidity
44359;BME280;30077;52.474;13.326;2022-12-29T00:04:18;100006.09;;;7.19;100.00
44359;BME280;30077;52.474;13.326;2022-12-29T00:09:18;100003.28;;;7.22;100.00
44359;BME280;30077;52.474;13.326;2022-12-29T00:14:18;99989.09;;;7.23;100.00
44359;BME280;30077;52.474;13.326;2022-12-29T00:19:37;99990.69;;;7.28;100.00
44359;BME280;30077;52.474;13.326;2022-12-29T00:24:56;99989.56;;;7.33;100.00
44359;BME280;30077;52.474;13.326;2022-12-29T00:30:00;99981.44;;;7.38;100.00
44359;BME280;30077;52.474;13.326;2022-12-29T00:35:30;99972.53;;;7.39;100.00
44359;BME280;30077;52.474;13.326;2022-12-29T00:40:31;99976.84;;;7.41;100.00
44359;BME280;30077;52.474;13.326;2022-12-29T00:45:50;99979.69;;;7.37;100.00
44359;BME280;30077;52.474;13.326;2022-12-29T00:50:55;99967.34;;;7.36;100.00
44359;BME280;30077;52.474;13.326;2022-12-29T00:55:56;99962.84;;;7.38;100.00
44359;BME280;30077;52.474;13.326;2022-12-29T01:01:04;99965.50;;;7.38;100.00
44359;BME280;30077;52.474;13.326;2022-12-29T01:06:07;99970.81;;;7.38;100.00
44359;BME280;30077;52.474;13.326;2022-12-29T01:11:11;99959.50;;;7.33;100.00
44359;BME280;30077;52.474;13.326;2022-12-29T01:16:11;99966.16;;;7.43;100.00
44359;BME280;30077;52.474;13.326;2022-12-29T01:21:11;99947.56;;;7.43;100.00
44359;BME280;30077;52.474;13.326;2022-12-29T01:26:14;99962.56;;;7.44;100.00
44359;BME280;30077;52.474;13.326;2022-12-29T01:31:15;99955.50;;;7.44;100.00
44359;BME280;30077;52.474;13.326;2022-12-29T01:36:17;99956.88;;;7.53;100.00
44359;BME280;30077;52.474;13.326;2022-12-29T01:41:17;99955.28;;;7.49;100.00
44359;BME280;30077;52.474;13.326;2022-12-29T01:46:31;99956.34;;;7.45;100.00
44359;BME280;30077;52.474;13.326;2022-12-29T01:51:39;99945.88;;;7.42;100.00
44359;BME280;30077;52.474;13.326;2022-12-29T01:56:41;99946.13;;;7.36;100.00
44359;BME280;30077;52.474;13.326;2022-12-29T02:01:41;99931.34;;;7.30;100.00
44359;BME280;30077;52.474;13.326;2022-12-29T02:06:47;99928.75;;;7.29;100.00
44359;BME280;30077;52.474;13.326;2022-12-29T02:11:49;99920.78;;;7.29;100.00
44359;BME280;30077;52.474;13.326;2022-12-29T02:17:08;99912.69;;;7.32;100.00
44359;BME280;30077;52.474;13.326;2022-12-29T02:22:31;99908.97;;;7.36;100.00
44359;BME280;30077;52.474;13.326;2022-12-29T02:43:37;99902.59;;;7.60;100.00
44359;BME280;30077;52.474;13.326;2022-12-29T02:48:46;99895.34;;;7.64;100.00
44359;BME280;30077;52.474;13.326;2022-12-29T02:53:50;99893.41;;;7.67;100.00
44359;BME280;30077;52.474;13.326;2022-12-29T02:59:10;99896.56;;;7.76;100.00
44359;BME280;30077;52.474;13.326;2022-12-29T03:04:25;99896.28;;;7.82;100.00
44359;BME280;30077;52.474;13.326;2022-12-29T03:09:43;99880.06;;;7.88;100.00
44359;BME280;30077;52.474;13.326;2022-12-29T03:15:02;99861.19;;;7.94;100.00
44359;BME280;30077;52.474;13.326;2022-12-29T03:20:28;99853.16;;;7.95;100.00
44359;BME280;30077;52.474;13.326;2022-12-29T03:25:34;99857.41;;;8.00;100.00
44359;BME280;30077;52.474;13.326;2022-12-29T03:30:36;99852.81;;;8.03;100.00
44359;BME280;30077;52.474;13.326;2022-12-29T03:35:38;99858.97;;;8.04;100.00
44359;BME280;30077;52.474;13.326;2022-12-29T03:40:42;99856.22;;;8.05;100.00
44359;BME280;30077;52.474;13.326;2022-12-29T03:45:44;99838.28;;;8.10;100.00
44359;BME280;30077;52.474;13.326;2022-12-29T03:50:44;99849.78;;;8.11;100.00
44359;BME280;30077;52.474;13.326;2022-12-29T03:55:45;99849.63;;;8.14;100.00
44359;BME280;30077;52.474;13.326;2022-12-29T04:00:45;99852.16;;;8.17;100.00
44359;BME280;30077;52.474;13.326;2022-12-29T04:05:45;99843.00;;;8.23;100.00
44359;BME280;30077;52.474;13.326;2022-12-29T04:10:45;99846.47;;;8.25;100.00
44359;BME280;30077;52.474;13.326;2022-12-29T04:15:46;99833.78;;;8.30;100.00
44359;BME280;30077;52.474;13.326;2022-12-29T04:20:46;99846.00;;;8.34;100.00
44359;BME280;30077;52.474;13.326;2022-12-29T04:26:02;99847.59;;;8.38;100.00
44359;BME280;30077;52.474;13.326;2022-12-29T04:31:03;99831.34;;;8.44;100.00
44359;BME280;30077;52.474;13.326;2022-12-29T04:36:04;99828.78;;;8.42;100.00
44359;BME280;30077;52.474;13.326;2022-12-29T04:41:05;99830.72;;;8.39;100.00
44359;BME280;30077;52.474;13.326;2022-12-29T04:46:06;99836.06;;;8.39;100.00
44359;BME280;30077;52.474;13.326;2022-12-29T04:51:06;99819.41;;;8.34;100.00
44359;BME280;30077;52.474;13.326;2022-12-29T04:56:06;99815.03;;;8.33;100.00
44359;BME280;30077;52.474;13.326;2022-12-29T05:01:07;99813.16;;;8.35;100.00
44359;BME280;30077;52.474;13.326;2022-12-29T05:06:07;99831.50;;;8.41;100.00
44359;BME280;30077;52.474;13.326;2022-12-29T05:11:08;99819.06;;;8.41;100.00
44359;BME280;30077;52.474;13.326;2022-12-29T05:16:08;99810.09;;;8.44;100.00
44359;BME280;30077;52.474;13.326;2022-12-29T05:21:08;99811.03;;;8.43;100.00
44359;BME280;30077;52.474;13.326;2022-12-29T05:26:08;99800.47;;;8.41;100.00
44359;BME280;30077;52.474;13.326;2022-12-29T05:31:09;99787.97;;;8.43;100.00
44359;BME280;30077;52.474;13.326;2022-12-29T05:36:13;99792.19;;;8.48;100.00
44359;BME280;30077;52.474;13.326;2022-12-29T05:41:14;99777.03;;;8.50;100.00
44359;BME280;30077;52.474;13.326;2022-12-29T05:46:14;99784.44;;;8.60;100.00
44359;BME280;30077;52.474;13.326;2022-12-29T05:51:14;99781.00;;;8.76;100.00
44359;BME280;30077;52.474;13.326;2022-12-29T05:56:15;99770.94;;;8.82;100.00
44359;BME280;30077;52.474;13.326;2022-12-29T06:01:15;99782.88;;;8.91;100.00
44359;BME280;30077;52.474;13.326;2022-12-29T06:06:15;99757.97;;;8.92;100.00
44359;BME280;30077;52.474;13.326;2022-12-29T06:11:16;99773.47;;;9.01;100.00
44359;BME280;30077;52.474;13.326;2022-12-29T06:16:16;99762.84;;;9.01;100.00
44359;BME280;30077;52.474;13.326;2022-12-29T06:21:16;99767.91;;;9.06;100.00
44359;BME280;30077;52.474;13.326;2022-12-29T06:26:16;99769.19;;;9.14;100.00
44359;BME280;30077;52.474;13.326;2022-12-29T06:31:17;99779.09;;;9.12;100.00
44359;BME280;30077;52.474;13.326;2022-12-29T06:36:17;99768.28;;;9.15;100.00
44359;BME280;30077;52.474;13.326;2022-12-29T06:41:19;99773.50;;;9.17;100.00
44359;BME280;30077;52.474;13.326;2022-12-29T06:46:19;99777.88;;;9.18;100.00
44359;BME280;30077;52.474;13.326;2022-12-29T06:51:19;99778.25;;;9.28;100.00
44359;BME280;30077;52.474;13.326;2022-12-29T06:56:19;99800.81;;;9.21;100.00
44359;BME280;30077;52.474;13.326;2022-12-29T07:01:19;99799.25;;;9.16;100.00
44359;BME280;30077;52.474;13.326;2022-12-29T07:06:21;99799.72;;;9.07;100.00
44359;BME280;30077;52.474;13.326;2022-12-29T07:11:21;99796.22;;;9.07;100.00
44359;BME280;30077;52.474;13.326;2022-12-29T07:16:21;99810.72;;;9.01;100.00
44359;BME280;30077;52.474;13.326;2022-12-29T07:21:22;99805.47;;;9.00;100.00
44359;BME280;30077;52.474;13.326;2022-12-29T07:26:23;99804.31;;;8.88;100.00
44359;BME280;30077;52.474;13.326;2022-12-29T07:31:23;99801.50;;;8.91;100.00
44359;BME280;30077;52.474;13.326;2022-12-29T07:36:23;99798.44;;;8.81;100.00
44359;BME280;30077;52.474;13.326;2022-12-29T07:41:23;99795.72;;;8.83;100.00
44359;BME280;30077;52.474;13.326;2022-12-29T07:46:24;99782.88;;;8.91;100.00
44359;BME280;30077;52.474;13.326;2022-12-29T07:51:24;99796.63;;;8.99;100.00
44359;BME280;30077;52.474;13.326;2022-12-29T07:56:24;99797.56;;;9.15;100.00
44359;BME280;30077;52.474;13.326;2022-12-29T08:01:24;99794.38;;;9.25;100.00
44359;BME280;30077;52.474;13.326;2022-12-29T08:06:25;99802.22;;;9.28;100.00
44359;BME280;30077;52.474;13.326;2022-12-29T08:11:25;99795.19;;;9.27;100.00
44359;BME280;30077;52.474;13.326;2022-12-29T08:16:25;99783.84;;;9.39;100.00
44359;BME280;30077;52.474;13.326;2022-12-29T08:21:27;99793.38;;;9.43;100.00
44359;BME280;30077;52.474;13.326;2022-12-29T08:26:27;99794.03;;;9.48;100.00
44359;BME280;30077;52.474;13.326;2022-12-29T08:31:27;99784.47;;;9.44;100.00
44359;BME280;30077;52.474;13.326;2022-12-29T08:36:28;99778.69;;;9.36;100.00
44359;BME280;30077;52.474;13.326;2022-12-29T08:41:28;99780.25;;;9.40;100.00
44359;BME280;30077;52.474;13.326;2022-12-29T08:46:28;99778.22;;;9.45;100.00
44359;BME280;30077;52.474;13.326;2022-12-29T08:51:28;99785.34;;;9.60;100.00
44359;BME280;30077;52.474;13.326;2022-12-29T08:56:29;99782.50;;;9.79;100.00
44359;BME280;30077;52.474;13.326;2022-12-29T09:01:29;99768.59;;;9.90;100.00
44359;BME280;30077;52.474;13.326;2022-12-29T09:06:30;99775.97;;;10.01;100.00
44359;BME280;30077;52.474;13.326;2022-12-29T09:11:30;99774.97;;;10.03;100.00
44359;BME280;30077;52.474;13.326;2022-12-29T09:16:31;99778.22;;;9.93;100.00
44359;BME280;30077;52.474;13.326;2022-12-29T09:21:31;99772.34;;;10.02;100.00
44359;BME280;30077;52.474;13.326;2022-12-29T09:26:31;99785.06;;;10.12;100.00
44359;BME280;30077;52.474;13.326;2022-12-29T09:31:32;99772.28;;;10.35;100.00
44359;BME280;30077;52.474;13.326;2022-12-29T09:36:32;99768.09;;;10.45;100.00
44359;BME280;30077;52.474;13.326;2022-12-29T09:42:06;99754.47;;;10.35;100.00
44359;BME280;30077;52.474;13.326;2022-12-29T09:47:11;99751.19;;;10.46;100.00
44359;BME280;30077;52.474;13.326;2022-12-29T09:52:15;99751.97;;;10.63;100.00
44359;BME280;30077;52.474;13.326;2022-12-29T09:57:23;99758.28;;;10.76;99.92
44359;BME280;30077;52.474;13.326;2022-12-29T10:03:02;99755.06;;;10.85;99.32
44359;BME280;30077;52.474;13.326;2022-12-29T10:13:45;99765.16;;;10.80;99.77
44359;BME280;30077;52.474;13.326;2022-12-29T10:19:19;99759.47;;;10.86;99.78
44359;BME280;30077;52.474;13.326;2022-12-29T10:24:26;99748.19;;;10.95;100.00
44359;BME280;30077;52.474;13.326;2022-12-29T10:29:32;99750.78;;;11.25;98.30
44359;BME280;30077;52.474;13.326;2022-12-29T10:34:36;99738.84;;;11.60;96.59
44359;BME280;30077;52.474;13.326;2022-12-29T10:39:44;99739.00;;;11.85;94.49
44359;BME280;30077;52.474;13.326;2022-12-29T10:44:45;99735.53;;;11.83;94.48
44359;BME280;30077;52.474;13.326;2022-12-29T10:49:47;99737.31;;;11.70;95.18
44359;BME280;30077;52.474;13.326;2022-12-29T10:55:03;99727.78;;;11.66;95.93
44359;BME280;30077;52.474;13.326;2022-12-29T11:00:21;99742.84;;;11.67;95.72
44359;BME280;30077;52.474;13.326;2022-12-29T11:05:36;99727.53;;;11.69;95.60
44359;BME280;30077;52.474;13.326;2022-12-29T11:10:40;99734.44;;;11.73;94.56
44359;BME280;30077;52.474;13.326;2022-12-29T11:15:43;99756.84;;;11.70;94.88
44359;BME280;30077;52.474;13.326;2022-12-29T11:20:44;99734.63;;;11.70;96.04
44359;BME280;30077;52.474;13.326;2022-12-29T11:25:44;99752.94;;;11.62;96.87
44359;BME280;30077;52.474;13.326;2022-12-29T11:30:59;99751.03;;;11.64;97.09
44359;BME280;30077;52.474;13.326;2022-12-29T11:36:06;99768.22;;;11.60;99.94
44359;BME280;30077;52.474;13.326;2022-12-29T11:41:11;99751.25;;;11.46;100.00
44359;BME280;30077;52.474;13.326;2022-12-29T11:46:22;99761.38;;;11.41;100.00
44359;BME280;30077;52.474;13.326;2022-12-29T11:51:38;99768.25;;;11.31;100.00
44359;BME280;30077;52.474;13.326;2022-12-29T11:56:41;99766.91;;;11.09;100.00
44359;BME280;30077;52.474;13.326;2022-12-29T12:01:42;99787.00;;;10.87;100.00
44359;BME280;30077;52.474;13.326;2022-12-29T12:06:49;99779.44;;;10.49;100.00
44359;BME280;30077;52.474;13.326;2022-12-29T12:11:56;99774.41;;;10.12;100.00
44359;BME280;30077;52.474;13.326;2022-12-29T12:17:18;99776.16;;;9.82;100.00
44359;BME280;30077;52.474;13.326;2022-12-29T12:22:41;99785.72;;;9.70;100.00
44359;BME280;30077;52.474;13.326;2022-12-29T12:27:48;99766.22;;;9.70;100.00
44359;BME280;30077;52.474;13.326;2022-12-29T12:33:03;99770.47;;;9.72;100.00
44359;BME280;30077;52.474;13.326;2022-12-29T12:49:17;99760.69;;;9.88;100.00
44359;BME280;30077;52.474;13.326;2022-12-29T12:54:36;99754.53;;;9.88;100.00
44359;BME280;30077;52.474;13.326;2022-12-29T13:00:05;99763.97;;;9.78;100.00
44359;BME280;30077;52.474;13.326;2022-12-29T13:10:30;99772.38;;;9.54;100.00
44359;BME280;30077;52.474;13.326;2022-12-29T13:16:00;99771.59;;;9.52;100.00
44359;BME280;30077;52.474;13.326;2022-12-29T13:26:35;99772.53;;;9.51;100.00
44359;BME280;30077;52.474;13.326;2022-12-29T13:32:00;99783.69;;;9.42;100.00
44359;BME280;30077;52.474;13.326;2022-12-29T13:37:08;99789.88;;;9.43;100.00
44359;BME280;30077;52.474;13.326;2022-12-29T13:42:11;99792.47;;;9.44;100.00
44359;BME280;30077;52.474;13.326;2022-12-29T13:47:25;99786.25;;;9.44;100.00
44359;BME280;30077;52.474;13.326;2022-12-29T13:52:30;99769.28;;;9.46;100.00
44359;BME280;30077;52.474;13.326;2022-12-29T13:58:00;99789.28;;;9.53;100.00
44359;BME280;30077;52.474;13.326;2022-12-29T14:03:40;99795.88;;;9.46;100.00
44359;BME280;30077;52.474;13.326;2022-12-29T14:08:42;99796.56;;;9.34;100.00
44359;BME280;30077;52.474;13.326;2022-12-29T14:13:45;99804.28;;;9.23;100.00
44359;BME280;30077;52.474;13.326;2022-12-29T14:18:46;99798.47;;;9.14;100.00
44359;BME280;30077;52.474;13.326;2022-12-29T14:23:48;99808.50;;;9.09;100.00
44359;BME280;30077;52.474;13.326;2022-12-29T14:28:49;99808.81;;;9.03;100.00
44359;BME280;30077;52.474;13.326;2022-12-29T14:39:38;99830.75;;;8.91;100.00
44359;BME280;30077;52.474;13.326;2022-12-29T14:49:49;99839.50;;;8.93;100.00
44359;BME280;30077;52.474;13.326;2022-12-29T14:55:28;99844.81;;;8.93;100.00
44359;BME280;30077;52.474;13.326;2022-12-29T15:00:33;99848.56;;;8.89;100.00
44359;BME280;30077;52.474;13.326;2022-12-29T15:05:44;99863.69;;;8.88;100.00
44359;BME280;30077;52.474;13.326;2022-12-29T15:10:53;99866.28;;;8.90;100.00
44359;BME280;30077;52.474;13.326;2022-12-29T15:15:54;99882.75;;;9.14;100.00
44359;BME280;30077;52.474;13.326;2022-12-29T15:20:57;99896.31;;;9.09;100.00
44359;BME280;30077;52.474;13.326;2022-12-29T15:26:01;99886.16;;;8.83;100.00
44359;BME280;30077;52.474;13.326;2022-12-29T15:31:05;99885.31;;;8.63;100.00
44359;BME280;30077;52.474;13.326;2022-12-29T15:36:11;99894.19;;;8.45;100.00
44359;BME280;30077;52.474;13.326;2022-12-29T15:41:46;99893.97;;;8.31;100.00
44359;BME280;30077;52.474;13.326;2022-12-29T15:47:05;99895.56;;;8.16;100.00
44359;BME280;30077;52.474;13.326;2022-12-29T15:52:07;99901.97;;;8.12;100.00
44359;BME280;30077;52.474;13.326;2022-12-29T15:57:21;99915.38;;;8.09;100.00
44359;BME280;30077;52.474;13.326;2022-12-29T16:02:23;99917.41;;;8.04;100.00
44359;BME280;30077;52.474;13.326;2022-12-29T16:07:32;99929.88;;;8.02;100.00
44359;BME280;30077;52.474;13.326;2022-12-29T16:12:35;99938.56;;;8.05;100.00
44359;BME280;30077;52.474;13.326;2022-12-29T16:17:49;99942.81;;;8.09;100.00
44359;BME280;30077;52.474;13.326;2022-12-29T16:22:56;99941.03;;;8.10;100.00
44359;BME280;30077;52.474;13.326;2022-12-29T16:27:59;99939.09;;;8.13;100.00
44359;BME280;30077;52.474;13.326;2022-12-29T16:33:02;99948.56;;;8.19;100.00
44359;BME280;30077;52.474;13.326;2022-12-29T16:38:16;99947.84;;;8.15;100.00
44359;BME280;30077;52.474;13.326;2022-12-29T16:43:33;99963.56;;;8.20;100.00
44359;BME280;30077;52.474;13.326;2022-12-29T16:48:37;99968.69;;;8.25;100.00
44359;BME280;30077;52.474;13.326;2022-12-29T16:53:53;99968.53;;;8.28;100.00
44359;BME280;30077;52.474;13.326;2022-12-29T17:04:30;99960.97;;;8.39;100.00
44359;BME280;30077;52.474;13.326;2022-12-29T17:09:30;99979.22;;;8.47;100.00
44359;BME280;30077;52.474;13.326;2022-12-29T17:19:35;99983.22;;;8.55;100.00
44359;BME280;30077;52.474;13.326;2022-12-29T17:24:36;99987.59;;;8.75;100.00
44359;BME280;30077;52.474;13.326;2022-12-29T17:29:39;99993.97;;;8.90;100.00
44359;BME280;30077;52.474;13.326;2022-12-29T17:34:40;99994.44;;;8.98;100.00
44359;BME280;30077;52.474;13.326;2022-12-29T17:39:40;99998.66;;;9.02;100.00
44359;BME280;30077;52.474;13.326;2022-12-29T17:44:42;99997.34;;;9.11;100.00
44359;BME280;30077;52.474;13.326;2022-12-29T17:49:42;99994.16;;;9.22;100.00
44359;BME280;30077;52.474;13.326;2022-12-29T17:54:49;99983.66;;;9.19;100.00
44359;BME280;30077;52.474;13.326;2022-12-29T17:59:50;100004.78;;;9.04;100.00
44359;BME280;30077;52.474;13.326;2022-12-29T18:04:50;100003.31;;;8.80;100.00
44359;BME280;30077;52.474;13.326;2022-12-29T18:09:50;99996.00;;;8.66;100.00
44359;BME280;30077;52.474;13.326;2022-12-29T18:14:51;100005.34;;;8.56;100.00
44359;BME280;30077;52.474;13.326;2022-12-29T18:19:51;100013.97;;;8.42;100.00
44359;BME280;30077;52.474;13.326;2022-12-29T18:24:53;100007.47;;;8.29;100.00
44359;BME280;30077;52.474;13.326;2022-12-29T18:29:54;100024.50;;;8.25;100.00
44359;BME280;30077;52.474;13.326;2022-12-29T18:34:54;100023.81;;;8.19;100.00
44359;BME280;30077;52.474;13.326;2022-12-29T18:39:55;100024.03;;;8.15;100.00
44359;BME280;30077;52.474;13.326;2022-12-29T18:44:56;100026.78;;;8.13;100.00
44359;BME280;30077;52.474;13.326;2022-12-29T18:49:56;100024.84;;;8.17;100.00
44359;BME280;30077;52.474;13.326;2022-12-29T18:54:56;100027.44;;;8.18;100.00
44359;BME280;30077;52.474;13.326;2022-12-29T18:59:57;100036.97;;;8.23;100.00
44359;BME280;30077;52.474;13.326;2022-12-29T19:04:57;100048.41;;;8.25;100.00
44359;BME280;30077;52.474;13.326;2022-12-29T19:09:59;100053.84;;;8.22;100.00
44359;BME280;30077;52.474;13.326;2022-12-29T19:14:59;100054.41;;;8.09;100.00
44359;BME280;30077;52.474;13.326;2022-12-29T19:20:01;100049.75;;;7.94;100.00
44359;BME280;30077;52.474;13.326;2022-12-29T19:25:02;100053.50;;;7.90;100.00
44359;BME280;30077;52.474;13.326;2022-12-29T19:30:03;100058.19;;;7.83;100.00
44359;BME280;30077;52.474;13.326;2022-12-29T19:35:03;100068.50;;;7.70;100.00
44359;BME280;30077;52.474;13.326;2022-12-29T19:40:09;100070.75;;;7.59;100.00
44359;BME280;30077;52.474;13.326;2022-12-29T19:45:10;100072.34;;;7.63;100.00
44359;BME280;30077;52.474;13.326;2022-12-29T19:50:13;100064.78;;;7.75;100.00
44359;BME280;30077;52.474;13.326;2022-12-29T19:55:15;100073.94;;;7.88;100.00
44359;BME280;30077;52.474;13.326;2022-12-29T20:00:15;100077.91;;;7.98;100.00
44359;BME280;30077;52.474;13.326;2022-12-29T20:05:17;100074.06;;;8.05;100.00
44359;BME280;30077;52.474;13.326;2022-12-29T20:10:18;100077.41;;;8.10;100.00
44359;BME280;30077;52.474;13.326;2022-12-29T20:15:18;100069.22;;;8.15;100.00
44359;BME280;30077;52.474;13.326;2022-12-29T20:20:19;100074.41;;;8.18;100.00
44359;BME280;30077;52.474;13.326;2022-12-29T20:25:19;100071.66;;;8.19;100.00
44359;BME280;30077;52.474;13.326;2022-12-29T20:30:19;100067.16;;;8.22;100.00
44359;BME280;30077;52.474;13.326;2022-12-29T20:35:20;100074.09;;;8.24;100.00
44359;BME280;30077;52.474;13.326;2022-12-29T20:40:20;100074.81;;;8.28;100.00
44359;BME280;30077;52.474;13.326;2022-12-29T20:45:20;100072.69;;;8.36;100.00
44359;BME280;30077;52.474;13.326;2022-12-29T20:50:20;100076.84;;;8.43;100.00
44359;BME280;30077;52.474;13.326;2022-12-29T20:55:22;100063.25;;;8.49;100.00
44359;BME280;30077;52.474;13.326;2022-12-29T21:00:23;100064.78;;;8.55;100.00
44359;BME280;30077;52.474;13.326;2022-12-29T21:05:26;100063.78;;;8.57;100.00
44359;BME280;30077;52.474;13.326;2022-12-29T21:10:26;100077.72;;;8.62;100.00
44359;BME280;30077;52.474;13.326;2022-12-29T21:15:26;100068.03;;;8.61;100.00
44359;BME280;30077;52.474;13.326;2022-12-29T21:20:29;100076.19;;;8.57;100.00
44359;BME280;30077;52.474;13.326;2022-12-29T21:25:31;100071.66;;;8.59;100.00
44359;BME280;30077;52.474;13.326;2022-12-29T21:30:38;100079.66;;;8.59;100.00
44359;BME280;30077;52.474;13.326;2022-12-29T21:35:38;100087.72;;;8.57;100.00
44359;BME280;30077;52.474;13.326;2022-12-29T21:40:40;100084.25;;;8.55;100.00
44359;BME280;30077;52.474;13.326;2022-12-29T21:45:40;100097.03;;;8.47;100.00
44359;BME280;30077;52.474;13.326;2022-12-29T21:50:43;100110.09;;;8.31;100.00
44359;BME280;30077;52.474;13.326;2022-12-29T21:56:22;100111.25;;;8.05;100.00
44359;BME280;30077;52.474;13.326;2022-12-29T22:01:23;100108.06;;;7.97;100.00
44359;BME280;30077;52.474;13.326;2022-12-29T22:06:42;100113.06;;;7.84;100.00
44359;BME280;30077;52.474;13.326;2022-12-29T22:12:01;100123.31;;;7.71;100.00
44359;BME280;30077;52.474;13.326;2022-12-29T22:17:20;100111.34;;;7.61;100.00
44359;BME280;30077;52.474;13.326;2022-12-29T22:22:21;100108.81;;;7.58;100.00
44359;BME280;30077;52.474;13.326;2022-12-29T22:27:21;100108.28;;;7.50;100.00
44359;BME280;30077;52.474;13.326;2022-12-29T22:32:21;100113.06;;;7.42;100.00
44359;BME280;30077;52.474;13.326;2022-12-29T22:37:21;100102.34;;;7.43;100.00
44359;BME280;30077;52.474;13.326;2022-12-29T22:42:22;100117.44;;;7.43;100.00
44359;BME280;30077;52.474;13.326;2022-12-29T22:47:23;100123.56;;;7.45;100.00
44359;BME280;30077;52.474;13.326;2022-12-29T22:52:23;100121.94;;;7.41;100.00
44359;BME280;30077;52.474;13.326;2022-12-29T22:57:23;100134.94;;;7.47;100.00
44359;BME280;30077;52.474;13.326;2022-12-29T23:02:24;100142.34;;;7.61;100.00
44359;BME280;30077;52.474;13.326;2022-12-29T23:07:24;100146.41;;;7.69;100.00
44359;BME280;30077;52.474;13.326;2022-12-29T23:12:24;100155.72;;;7.80;100.00
44359;BME280;30077;52.474;13.326;2022-12-29T23:17:27;100161.16;;;7.77;100.00
44359;BME280;30077;52.474;13.326;2022-12-29T23:22:27;100155.59;;;7.83;100.00
44359;BME280;30077;52.474;13.326;2022-12-29T23:27:28;100166.88;;;7.88;100.00
44359;BME280;30077;52.474;13.326;2022-12-29T23:32:28;100173.81;;;7.92;100.00
44359;BME280;30077;52.474;13.326;2022-12-29T23:37:28;100182.56;;;7.94;100.00
44359;BME280;30077;52.474;13.326;2022-12-29T23:42:28;100186.94;;;7.95;100.00
44359;BME280;30077;52.474;13.326;2022-12-29T23:47:29;100185.91;;;7.99;100.00
44359;BME280;30077;52.474;13.326;2022-12-29T23:52:32;100186.28;;;7.90;100.00
44359;BME280;30077;52.474;13.326;2022-12-29T23:57:34;100196.69;;;7.74;100.00
